createdAt,value
2019-05-26T00:00:26.875Z,7.55
2019-05-26T00:02:59.901Z,6.85
2019-05-26T00:05:32.522Z,7.30
2019-05-26T00:08:05.107Z,8.10
2019-05-26T00:10:37.517Z,8.05
2019-05-26T00:13:09.934Z,8.43
2019-05-26T00:15:42.740Z,9.40
2019-05-26T00:18:15.624Z,8.08
2019-05-26T00:20:48.183Z,9.00
2019-05-26T00:23:20.897Z,7.72
2019-05-26T00:25:54.471Z,7.97
2019-05-26T00:28:26.965Z,6.95
2019-05-26T00:30:59.916Z,7.70
2019-05-26T00:33:32.376Z,6.60
2019-05-26T00:36:05.140Z,9.70
2019-05-26T00:38:38.146Z,11.05
2019-05-26T00:41:10.568Z,9.38
2019-05-26T00:43:43.282Z,8.45
2019-05-26T00:46:15.824Z,10.55
2019-05-26T00:48:49.154Z,10.15
2019-05-26T00:51:21.625Z,12.35
2019-05-26T00:53:53.515Z,9.45
2019-05-26T00:56:26.117Z,8.28
2019-05-26T00:58:59.638Z,8.35
2019-05-26T01:01:32.559Z,8.80
2019-05-26T01:04:05.311Z,7.97
2019-05-26T01:06:38.334Z,6.35
2019-05-26T01:09:11.319Z,7.35
2019-05-26T01:11:43.821Z,7.83
2019-05-26T01:14:16.329Z,7.40
2019-05-26T01:16:48.667Z,7.67
2019-05-26T01:19:21.135Z,7.77
2019-05-26T01:21:53.645Z,8.58
2019-05-26T01:24:26.783Z,7.72
2019-05-26T01:26:58.903Z,8.55
2019-05-26T01:29:31.526Z,7.03
2019-05-26T01:32:04.172Z,7.55
2019-05-26T01:34:36.614Z,6.95
2019-05-26T01:37:09.355Z,7.03
2019-05-26T01:39:42.311Z,8.38
2019-05-26T01:42:14.939Z,7.80
2019-05-26T01:44:47.651Z,7.42
2019-05-26T01:47:20.180Z,7.40
2019-05-26T01:49:52.934Z,7.35
2019-05-26T01:52:25.555Z,8.35
2019-05-26T01:54:58.047Z,6.80
2019-05-26T01:57:30.913Z,7.55
2019-05-26T02:00:03.364Z,6.60
2019-05-26T02:02:36.740Z,7.55
2019-05-26T02:05:09.391Z,7.53
2019-05-26T02:07:42.208Z,10.58
2019-05-26T02:10:15.144Z,7.45
2019-05-26T02:12:47.819Z,6.53
2019-05-26T02:15:21.242Z,7.60
2019-05-26T02:17:54.123Z,7.75
2019-05-26T02:20:27.045Z,9.95
2019-05-26T02:22:59.540Z,8.63
2019-05-26T02:25:32.092Z,8.58
2019-05-26T02:28:04.699Z,8.23
2019-05-26T02:30:37.096Z,9.50
2019-05-26T02:33:09.171Z,10.15
2019-05-26T02:35:41.654Z,10.60
2019-05-26T02:38:13.507Z,9.65
2019-05-26T02:40:46.312Z,8.58
2019-05-26T02:43:19.194Z,10.30
2019-05-26T02:45:52.037Z,10.55
2019-05-26T02:48:24.220Z,9.83
2019-05-26T02:50:57.227Z,9.47
2019-05-26T02:53:30.078Z,11.83
2019-05-26T02:56:02.862Z,9.70
2019-05-26T02:58:35.481Z,9.18
2019-05-26T03:01:08.195Z,10.68
2019-05-26T03:03:40.900Z,9.60
2019-05-26T03:06:14.468Z,9.35
2019-05-26T03:08:48.455Z,7.53
2019-05-26T03:11:21.903Z,9.58
2019-05-26T03:13:55.715Z,10.58
2019-05-26T03:16:29.975Z,9.03
2019-05-26T03:19:04.584Z,8.45
2019-05-26T03:21:38.303Z,7.37
2019-05-26T03:24:10.890Z,7.28
2019-05-26T03:26:43.662Z,13.25
2019-05-26T03:29:16.329Z,6.92
2019-05-26T03:31:49.172Z,8.38
2019-05-26T03:34:21.673Z,8.03
2019-05-26T03:36:54.205Z,8.38
2019-05-26T03:39:43.237Z,7.42
2019-05-26T03:42:00.716Z,7.33
2019-05-26T03:44:33.599Z,9.68
2019-05-26T03:47:06.357Z,10.32
2019-05-26T03:49:38.845Z,8.55
2019-05-26T03:52:12.219Z,7.75
2019-05-26T03:54:44.840Z,8.80
2019-05-26T03:57:17.619Z,6.20
2019-05-26T03:59:50.060Z,8.70
2019-05-26T04:02:22.579Z,11.70
2019-05-26T04:04:55.128Z,9.93
2019-05-26T04:07:27.975Z,12.20
2019-05-26T04:10:05.213Z,10.10
2019-05-26T04:12:34.769Z,12.90
2019-05-26T04:15:07.437Z,10.35
2019-05-26T04:17:39.948Z,12.30
2019-05-26T04:20:12.607Z,10.75
2019-05-26T04:22:45.316Z,9.00
2019-05-26T04:25:17.997Z,8.33
2019-05-26T04:27:50.446Z,8.73
2019-05-26T04:30:23.609Z,10.72
2019-05-26T04:32:56.318Z,8.10
2019-05-26T04:35:28.882Z,9.18
2019-05-26T04:38:01.458Z,9.88
2019-05-26T04:40:34.477Z,11.78
2019-05-26T04:43:07.084Z,14.68
2019-05-26T04:45:39.611Z,14.03
2019-05-26T04:48:12.165Z,11.45
2019-05-26T04:50:44.724Z,10.80
2019-05-26T04:53:17.558Z,10.98
2019-05-26T04:55:49.929Z,10.20
2019-05-26T04:58:22.671Z,7.50
2019-05-26T05:00:55.009Z,8.08
2019-05-26T05:03:28.006Z,7.30
2019-05-26T05:06:00.648Z,7.78
2019-05-26T05:08:32.901Z,11.35
2019-05-26T05:11:05.806Z,6.87
2019-05-26T05:13:38.408Z,7.80
2019-05-26T05:16:10.834Z,8.48
2019-05-26T05:18:43.370Z,9.15
2019-05-26T05:21:15.869Z,8.65
2019-05-26T05:23:48.309Z,9.40
2019-05-26T05:26:20.978Z,9.30
2019-05-26T05:28:53.357Z,8.10
2019-05-26T05:31:26.074Z,8.15
2019-05-26T05:33:58.862Z,7.67
2019-05-26T05:36:31.758Z,8.15
2019-05-26T05:39:05.115Z,10.10
2019-05-26T05:41:37.701Z,8.28
2019-05-26T05:44:10.320Z,9.30
2019-05-26T05:46:42.751Z,8.08
2019-05-26T05:49:15.465Z,10.82
2019-05-26T05:51:48.292Z,7.40
2019-05-26T05:54:20.760Z,7.42
2019-05-26T05:56:55.582Z,9.18
2019-05-26T05:59:27.701Z,7.75
2019-05-26T06:02:00.544Z,8.25
2019-05-26T06:04:33.085Z,6.67
2019-05-26T06:07:05.706Z,8.15
2019-05-26T06:09:39.321Z,8.70
2019-05-26T06:12:14.747Z,7.33
2019-05-26T06:14:47.429Z,9.45
2019-05-26T06:17:19.974Z,6.75
2019-05-26T06:19:52.555Z,6.85
2019-05-26T06:22:25.166Z,5.80
2019-05-26T06:24:57.999Z,7.33
2019-05-26T06:27:30.454Z,8.70
2019-05-26T06:30:02.878Z,6.95
2019-05-26T06:32:35.686Z,7.03
2019-05-26T06:35:08.538Z,6.67
2019-05-26T06:37:41.563Z,5.92
2019-05-26T06:40:14.600Z,6.35
2019-05-26T06:45:18.712Z,6.17
2019-05-26T06:50:22.833Z,4.87
2019-05-26T06:52:55.310Z,4.83
2019-05-26T06:55:29.045Z,6.42
2019-05-26T06:58:01.402Z,5.97
2019-05-26T07:00:34.054Z,5.53
2019-05-26T07:03:06.637Z,6.25
2019-05-26T07:05:42.126Z,5.85
2019-05-26T07:08:14.084Z,4.87
2019-05-26T07:10:46.450Z,5.20
2019-05-26T07:13:19.135Z,5.70
2019-05-26T07:15:51.550Z,5.87
2019-05-26T07:18:23.998Z,5.72
2019-05-26T07:20:56.851Z,5.28
2019-05-26T07:23:29.562Z,6.28
2019-05-26T07:26:02.394Z,5.15
2019-05-26T07:28:34.547Z,6.12
2019-05-26T07:31:07.179Z,7.10
2019-05-26T07:33:40.951Z,5.33
2019-05-26T07:36:13.260Z,5.15
2019-05-26T07:38:45.914Z,6.72
2019-05-26T07:41:18.497Z,5.33
2019-05-26T07:43:50.939Z,7.37
2019-05-26T07:46:23.925Z,5.20
2019-05-26T07:48:56.592Z,4.50
2019-05-26T07:51:29.100Z,5.30
2019-05-26T07:54:01.977Z,5.42
2019-05-26T07:56:34.703Z,5.37
2019-05-26T07:59:07.093Z,4.55
2019-05-26T08:01:39.963Z,8.13
2019-05-26T08:04:12.713Z,8.15
2019-05-26T08:06:45.155Z,5.80
2019-05-26T08:09:18.232Z,4.08
2019-05-26T08:11:50.543Z,3.98
2019-05-26T08:14:23.206Z,4.20
2019-05-26T08:16:55.605Z,4.15
2019-05-26T08:19:27.967Z,4.53
2019-05-26T08:22:00.760Z,4.42
2019-05-26T08:24:33.510Z,5.15
2019-05-26T08:27:06.092Z,5.50
2019-05-26T08:32:10.279Z,3.80
2019-05-26T08:34:43.028Z,4.40
2019-05-26T08:37:15.451Z,3.83
2019-05-26T08:39:48.975Z,6.50
2019-05-26T08:42:27.369Z,4.12
2019-05-26T08:44:56.065Z,4.33
2019-05-26T08:47:28.769Z,4.97
2019-05-26T08:50:01.509Z,4.35
2019-05-26T08:52:33.499Z,5.25
2019-05-26T08:55:06.346Z,7.00
2019-05-26T09:00:10.763Z,4.08
2019-05-26T09:02:43.544Z,4.30
2019-05-26T09:05:16.621Z,4.90
2019-05-26T09:07:49.111Z,5.25
2019-05-26T09:10:22.092Z,3.60
2019-05-26T09:13:01.255Z,3.52
2019-05-26T09:15:29.092Z,5.47
2019-05-26T09:18:01.911Z,3.20
2019-05-26T09:23:05.996Z,3.20
2019-05-26T09:28:10.286Z,4.35
2019-05-26T09:30:43.046Z,2.90
2019-05-26T09:33:15.705Z,3.37
2019-05-26T09:35:48.228Z,3.27
2019-05-26T09:38:20.639Z,2.70
2019-05-26T09:40:53.161Z,2.30
2019-05-26T09:43:25.772Z,2.30
2019-05-26T09:45:58.828Z,2.35
2019-05-26T09:48:31.346Z,3.00
2019-05-26T09:51:03.963Z,2.92
2019-05-26T09:53:36.378Z,1.77
2019-05-26T09:56:08.806Z,2.60
2019-05-26T09:58:41.389Z,2.50
2019-05-26T10:01:14.713Z,3.08
2019-05-26T10:03:48.484Z,2.75
2019-05-26T10:06:21.918Z,3.90
2019-05-26T10:08:54.549Z,3.12
2019-05-26T10:11:26.984Z,3.30
2019-05-26T10:13:59.469Z,2.65
2019-05-26T10:16:32.176Z,2.83
2019-05-26T10:19:05.220Z,4.40
2019-05-26T10:21:37.721Z,4.03
2019-05-26T10:24:10.784Z,3.10
2019-05-26T10:26:44.691Z,2.70
2019-05-26T10:29:17.491Z,2.70
2019-05-26T10:34:22.263Z,2.85
2019-05-26T10:39:25.773Z,4.75
2019-05-26T10:41:58.495Z,3.87
2019-05-26T10:47:02.428Z,2.70
2019-05-26T10:49:34.857Z,2.37
2019-05-26T10:52:07.495Z,2.80
2019-05-26T10:54:40.391Z,3.45
2019-05-26T10:57:12.980Z,3.15
2019-05-26T10:59:45.159Z,3.12
2019-05-26T11:02:17.848Z,3.22
2019-05-26T11:07:21.545Z,2.70
2019-05-26T11:09:53.819Z,2.60
2019-05-26T11:12:26.472Z,4.03
2019-05-26T11:14:58.873Z,2.27
2019-05-26T11:17:31.788Z,5.45
2019-05-26T11:20:04.606Z,3.05
2019-05-26T11:22:37.157Z,3.50
2019-05-26T11:25:10.097Z,2.15
2019-05-26T11:27:42.977Z,2.50
2019-05-26T11:30:17.447Z,2.42
2019-05-26T11:32:49.994Z,3.30
2019-05-26T11:35:23.041Z,3.65
2019-05-26T11:37:55.810Z,2.47
2019-05-26T11:40:28.794Z,2.35
2019-05-26T11:43:14.047Z,2.20
2019-05-26T11:45:36.069Z,2.27
2019-05-26T11:48:08.889Z,3.70
2019-05-26T11:50:41.413Z,4.22
2019-05-26T11:53:13.901Z,2.55
2019-05-26T11:55:47.029Z,2.10
2019-05-26T11:58:19.597Z,1.95
2019-05-26T12:00:53.379Z,2.60
2019-05-26T12:03:25.816Z,2.02
2019-05-26T12:05:58.471Z,2.33
2019-05-26T12:11:02.275Z,2.12
2019-05-26T12:16:07.789Z,4.40
2019-05-26T12:21:11.312Z,1.72
2019-05-26T12:23:44.185Z,2.45
2019-05-26T12:26:16.908Z,1.90
2019-05-26T12:28:49.329Z,1.70
2019-05-26T12:31:21.723Z,1.62
2019-05-26T12:33:53.858Z,2.87
2019-05-26T12:36:26.043Z,7.45
2019-05-26T12:38:59.157Z,3.22
2019-05-26T12:41:34.971Z,3.50
2019-05-26T12:44:10.740Z,2.40
2019-05-26T12:49:36.942Z,1.60
2019-05-26T12:52:08.632Z,1.57
2019-05-26T12:54:40.169Z,1.47
2019-05-26T12:57:11.570Z,2.77
2019-05-26T12:59:42.919Z,1.75
2019-05-26T13:02:14.397Z,1.65
2019-05-26T13:04:45.798Z,1.60
2019-05-26T13:07:17.380Z,1.80
2019-05-26T13:09:48.723Z,1.55
2019-05-26T13:12:20.256Z,3.12
2019-05-26T13:15:04.972Z,2.27
2019-05-26T13:17:25.160Z,1.72
2019-05-26T13:19:56.595Z,1.90
2019-05-26T13:22:28.106Z,2.27
2019-05-26T13:24:59.456Z,1.70
2019-05-26T13:27:30.916Z,2.10
2019-05-26T13:30:02.552Z,1.67
2019-05-26T13:32:35.136Z,1.95
2019-05-26T13:35:07.165Z,1.70
2019-05-26T13:37:38.993Z,3.22
2019-05-26T13:40:10.641Z,2.58
2019-05-26T13:42:42.269Z,1.70
2019-05-26T13:45:22.211Z,5.28
2019-05-26T13:47:47.728Z,2.02
2019-05-26T13:50:21.035Z,2.65
2019-05-26T13:52:52.448Z,1.90
2019-05-26T13:55:24.158Z,1.85
2019-05-26T13:57:55.490Z,2.10
2019-05-26T14:00:27.155Z,2.02
2019-05-26T14:02:59.291Z,3.03
2019-05-26T14:05:31.068Z,2.00
2019-05-26T14:08:02.424Z,2.30
2019-05-26T14:10:37.975Z,1.87
2019-05-26T14:13:09.874Z,2.40
2019-05-26T14:15:41.331Z,2.67
2019-05-26T14:18:13.835Z,2.10
2019-05-26T14:20:45.846Z,2.00
2019-05-26T14:23:17.401Z,2.20
2019-05-26T14:25:48.826Z,1.60
2019-05-26T14:28:20.295Z,2.20
2019-05-26T14:30:52.029Z,2.00
2019-05-26T14:33:23.416Z,2.33
2019-05-26T14:35:54.921Z,3.30
2019-05-26T14:38:42.003Z,2.15
2019-05-26T14:40:59.661Z,2.45
2019-05-26T14:43:31.263Z,2.35
2019-05-26T14:46:02.998Z,4.40
2019-05-26T14:48:34.445Z,2.52
2019-05-26T14:51:05.953Z,3.25
2019-05-26T14:53:37.539Z,1.98
2019-05-26T14:56:08.970Z,3.33
2019-05-26T14:58:40.668Z,2.67
2019-05-26T15:01:12.114Z,3.77
2019-05-26T15:03:43.844Z,4.90
2019-05-26T15:06:15.514Z,3.17
2019-05-26T15:08:46.927Z,3.80
2019-05-26T15:11:18.482Z,3.00
2019-05-26T15:13:50.113Z,2.27
2019-05-26T15:16:21.622Z,2.77
2019-05-26T15:18:53.272Z,2.22
2019-05-26T15:21:24.760Z,3.45
2019-05-26T15:23:56.115Z,1.92
2019-05-26T15:26:27.607Z,2.08
2019-05-26T15:28:59.119Z,1.95
2019-05-26T15:31:30.356Z,2.47
2019-05-26T15:34:01.872Z,1.85
2019-05-26T15:36:33.416Z,2.55
2019-05-26T15:39:05.371Z,3.50
2019-05-26T15:41:36.938Z,3.03
2019-05-26T15:44:08.360Z,2.55
2019-05-26T15:46:39.873Z,2.62
2019-05-26T15:49:11.217Z,2.25
2019-05-26T15:51:42.520Z,2.67
2019-05-26T15:54:14.352Z,2.17
2019-05-26T15:56:46.125Z,2.55
2019-05-26T15:59:17.522Z,3.42
2019-05-26T16:01:49.268Z,2.87
2019-05-26T16:04:20.659Z,3.77
2019-05-26T16:06:52.253Z,2.40
2019-05-26T16:09:23.660Z,4.35
2019-05-26T16:11:55.394Z,4.35
2019-05-26T16:14:27.106Z,2.95
2019-05-26T16:16:58.709Z,4.37
2019-05-26T16:19:30.149Z,3.10
2019-05-26T16:22:01.618Z,3.72
2019-05-26T16:24:33.095Z,3.92
2019-05-26T16:27:18.158Z,3.72
2019-05-26T16:29:37.847Z,4.62
2019-05-26T16:32:10.293Z,5.08
2019-05-26T16:34:41.785Z,2.65
2019-05-26T16:37:13.115Z,3.12
2019-05-26T16:39:44.580Z,2.33
2019-05-26T16:42:15.924Z,2.52
2019-05-26T16:44:47.505Z,2.40
2019-05-26T16:47:19.126Z,2.77
2019-05-26T16:49:50.525Z,2.60
2019-05-26T16:52:21.938Z,8.98
2019-05-26T16:54:53.360Z,8.60
2019-05-26T16:57:24.697Z,7.47
2019-05-26T16:59:56.074Z,3.72
2019-05-26T17:02:27.483Z,5.72
2019-05-26T17:04:58.874Z,3.60
2019-05-26T17:07:30.367Z,4.00
2019-05-26T17:10:02.490Z,4.72
2019-05-26T17:12:34.142Z,5.57
2019-05-26T17:15:06.478Z,10.88
2019-05-26T17:17:38.256Z,13.10
2019-05-26T17:20:10.493Z,3.65
2019-05-26T17:22:41.990Z,6.12
2019-05-26T17:25:14.072Z,9.58
2019-05-26T17:27:45.932Z,4.97
2019-05-26T17:30:25.436Z,3.55
2019-05-26T17:32:57.471Z,6.08
2019-05-26T17:35:29.155Z,24.60
2019-05-26T17:38:00.390Z,50.50
2019-05-26T17:40:32.766Z,46.27
2019-05-26T17:43:04.244Z,65.10
2019-05-26T17:45:35.883Z,30.70
2019-05-26T17:48:07.662Z,11.48
2019-05-26T17:50:39.219Z,5.50
2019-05-26T17:53:10.647Z,3.87
2019-05-26T17:55:42.177Z,4.08
2019-05-26T17:58:13.858Z,4.10
2019-05-26T18:00:45.419Z,3.05
2019-05-26T18:03:17.320Z,3.05
2019-05-26T18:05:48.744Z,3.72
2019-05-26T18:08:20.507Z,3.00
2019-05-26T18:10:51.901Z,4.12
2019-05-26T18:13:24.732Z,3.33
2019-05-26T18:15:56.432Z,6.37
2019-05-26T18:18:27.965Z,3.40
2019-05-26T18:20:59.478Z,4.30
2019-05-26T18:23:31.910Z,4.97
2019-05-26T18:26:03.218Z,7.30
2019-05-26T18:28:34.927Z,7.08
2019-05-26T18:31:06.424Z,5.92
2019-05-26T18:33:37.870Z,7.22
2019-05-26T18:36:09.386Z,5.10
2019-05-26T18:38:40.676Z,6.17
2019-05-26T18:41:12.231Z,5.65
2019-05-26T18:43:43.937Z,7.33
2019-05-26T18:46:15.762Z,7.15
2019-05-26T18:48:47.462Z,6.37
2019-05-26T18:51:19.211Z,4.35
2019-05-26T18:53:51.536Z,4.53
2019-05-26T18:56:23.330Z,3.95
2019-05-26T18:58:54.682Z,4.45
2019-05-26T19:01:26.341Z,4.47
2019-05-26T19:03:57.788Z,5.05
2019-05-26T19:06:29.522Z,4.70
2019-05-26T19:09:01.060Z,4.30
2019-05-26T19:11:34.453Z,5.50
2019-05-26T19:14:06.370Z,4.08
2019-05-26T19:16:37.861Z,3.87
2019-05-26T19:19:09.511Z,5.22
2019-05-26T19:21:41.115Z,7.62
2019-05-26T19:24:12.591Z,6.35
2019-05-26T19:26:44.247Z,7.00
2019-05-26T19:29:15.687Z,7.30
2019-05-26T19:31:48.899Z,6.00
2019-05-26T19:34:27.865Z,8.85
2019-05-26T19:37:04.462Z,9.55
2019-05-26T19:39:37.720Z,4.80
2019-05-26T19:42:11.202Z,5.22
2019-05-26T19:44:45.150Z,4.47
2019-05-26T19:47:31.350Z,4.92
2019-05-26T19:50:14.884Z,7.00
2019-05-26T19:52:50.149Z,6.12
2019-05-26T19:55:25.617Z,5.90
2019-05-26T19:57:56.927Z,5.85
2019-05-26T20:00:28.966Z,6.08
2019-05-26T20:03:00.467Z,6.45
2019-05-26T20:05:31.859Z,8.20
2019-05-26T20:08:03.406Z,5.78
2019-05-26T20:10:35.086Z,12.93
2019-05-26T20:13:06.804Z,6.28
2019-05-26T20:15:41.293Z,7.67
2019-05-26T20:18:13.259Z,6.60
2019-05-26T20:20:44.738Z,6.35
2019-05-26T20:23:20.416Z,4.87
2019-05-26T20:25:53.932Z,7.30
2019-05-26T20:28:28.246Z,5.58
2019-05-26T20:31:04.248Z,6.10
2019-05-26T20:33:37.882Z,6.65
2019-05-26T20:36:11.193Z,3.83
2019-05-26T20:38:44.230Z,3.77
2019-05-26T20:44:02.094Z,3.95
2019-05-26T20:46:33.971Z,4.62
2019-05-26T20:49:05.670Z,4.47
2019-05-26T20:51:37.235Z,4.67
2019-05-26T20:54:08.702Z,4.00
2019-05-26T20:56:40.257Z,4.28
2019-05-26T20:59:11.751Z,4.78
2019-05-26T21:01:43.289Z,8.43
2019-05-26T21:04:14.769Z,5.70
2019-05-26T21:06:47.785Z,6.20
2019-05-26T21:11:49.629Z,5.12
2019-05-26T21:14:22.324Z,5.80
2019-05-26T21:16:53.751Z,5.22
2019-05-26T21:19:25.581Z,6.80
2019-05-26T21:21:57.042Z,5.60
2019-05-26T21:24:28.760Z,5.40
2019-05-26T21:27:00.167Z,4.45
2019-05-26T21:29:31.675Z,6.22
2019-05-26T21:32:03.261Z,6.85
2019-05-26T21:34:34.774Z,8.75
2019-05-26T21:37:06.694Z,8.73
2019-05-26T21:39:38.242Z,6.87
2019-05-26T21:42:09.952Z,8.25
2019-05-26T21:44:41.448Z,7.65
2019-05-26T21:47:12.771Z,7.37
2019-05-26T21:49:44.809Z,6.08
2019-05-26T21:52:16.491Z,6.45
2019-05-26T21:54:47.820Z,4.75
2019-05-26T21:57:21.506Z,5.40
2019-05-26T21:59:54.494Z,5.17
2019-05-26T22:02:27.752Z,4.90
2019-05-26T22:05:00.883Z,4.97
2019-05-26T22:07:35.111Z,7.28
2019-05-26T22:12:40.179Z,6.08
2019-05-26T22:15:13.414Z,5.70
2019-05-26T22:17:47.296Z,7.47
2019-05-26T22:20:20.369Z,5.75
2019-05-26T22:25:21.791Z,6.58
2019-05-26T22:27:53.474Z,6.47
2019-05-26T22:30:25.061Z,5.53
2019-05-26T22:32:56.762Z,6.08
2019-05-26T22:35:28.259Z,6.80
2019-05-26T22:37:59.711Z,4.58
2019-05-26T22:40:31.305Z,4.90
2019-05-26T22:43:02.775Z,5.78
2019-05-26T22:45:34.380Z,6.00
2019-05-26T22:48:05.974Z,8.20
2019-05-26T22:50:37.377Z,5.95
2019-05-26T22:53:08.799Z,5.47
2019-05-26T22:55:40.242Z,7.92
2019-05-26T22:58:11.804Z,4.72
2019-05-26T23:00:43.557Z,6.67
2019-05-26T23:03:15.173Z,5.42
2019-05-26T23:05:46.923Z,7.08
2019-05-26T23:08:18.347Z,5.78
2019-05-26T23:10:50.025Z,4.87
2019-05-26T23:13:21.375Z,5.80
2019-05-26T23:15:53.155Z,8.30
2019-05-26T23:18:24.492Z,7.37
2019-05-26T23:20:56.132Z,10.85
2019-05-26T23:23:27.617Z,6.28
2019-05-26T23:25:59.462Z,8.30
2019-05-26T23:28:30.926Z,9.08
2019-05-26T23:31:03.747Z,7.67
2019-05-26T23:33:35.310Z,6.05
2019-05-26T23:36:06.745Z,6.65
2019-05-26T23:38:38.445Z,7.83
2019-05-26T23:41:10.187Z,6.50
2019-05-26T23:43:43.027Z,7.67
2019-05-26T23:46:14.429Z,7.03
2019-05-26T23:48:45.833Z,7.72
2019-05-26T23:51:17.580Z,7.55
2019-05-26T23:53:49.090Z,6.97
2019-05-26T23:56:20.433Z,7.58
2019-05-26T23:58:52.149Z,7.00
